Terminal Aerodrome Forecast
Issued by NWS Wichita, KS

Home | Current Version | Previous Version | Text Only | Print | Product List | Glossary Off
Versions: 1 2 3 4 5 6 7 8 9 10 11 12 13 14 15 16 17 18 19 20 21 22 23 24 25 26 27 28 29

000
FTUS43 KICT 280607 AAA
TAFICT
TAF AMD
KICT 280607Z 2806/2906 15007KT P6SM VCTS SCT035CB BKN120
      TEMPO 2806/2808 VRB15G30KT P6SM SCT015 BKN035CB
     FM280800 09007KT P6SM -TSRA BKN035CB
     FM281700 18015G22KT P6SM BKN120
     FM290300 16010KT P6SM BKN025=

USA.gov is the U.S. government's official web portal to all federal, state and local government web resources and services.